createdAt,value
2023-03-27T00:00:16.628Z,100462.41
2023-03-27T00:05:20.563Z,100467.34
2023-03-27T00:10:23.405Z,100476.56
2023-03-27T00:15:27.217Z,100477.59
2023-03-27T00:20:30.058Z,100481.09
2023-03-27T00:25:32.609Z,100483.56
2023-03-27T00:30:36.950Z,100490.09
2023-03-27T00:35:39.620Z,100482.06
2023-03-27T00:40:44.035Z,100482.31
2023-03-27T00:45:50.926Z,100487.75
2023-03-27T00:50:54.549Z,100495.53
2023-03-27T00:56:02.356Z,100499.03
2023-03-27T01:01:08.551Z,100497.31
2023-03-27T01:06:13.898Z,100501.63
2023-03-27T01:11:23.600Z,100492.28
2023-03-27T01:16:34.878Z,100499.63
2023-03-27T01:21:55.381Z,100506.66
2023-03-27T01:27:03.352Z,100496.91
2023-03-27T01:32:30.534Z,100508.22
2023-03-27T01:37:50.287Z,100502.66
2023-03-27T01:43:02.161Z,100507.56
2023-03-27T01:48:11.769Z,100510.59
2023-03-27T01:53:18.937Z,100506.47
2023-03-27T01:58:28.069Z,100519.69
2023-03-27T02:03:35.699Z,100526.69
2023-03-27T02:08:44.945Z,100523.97
2023-03-27T02:13:53.124Z,100536.56
2023-03-27T02:19:01.860Z,100533.84
2023-03-27T02:24:05.979Z,100547.56
2023-03-27T02:29:27.610Z,100559.50
2023-03-27T02:34:46.310Z,100564.31
2023-03-27T02:39:56.697Z,100563.66
2023-03-27T02:45:10.177Z,100567.28
2023-03-27T02:50:16.941Z,100580.63
2023-03-27T02:55:23.955Z,100596.69
2023-03-27T03:00:31.567Z,100599.00
2023-03-27T03:05:37.221Z,100602.25
2023-03-27T03:10:44.529Z,100602.63
2023-03-27T03:15:50.470Z,100615.19
2023-03-27T03:20:54.090Z,100626.69
2023-03-27T03:25:57.495Z,100634.06
2023-03-27T03:31:02.673Z,100638.69
2023-03-27T03:36:06.491Z,100645.28
2023-03-27T03:41:09.101Z,100643.31
2023-03-27T03:46:12.960Z,100653.69
2023-03-27T03:51:15.496Z,100665.09
2023-03-27T03:56:18.021Z,100660.06
2023-03-27T04:01:22.898Z,100673.00
2023-03-27T04:06:25.856Z,100679.34
2023-03-27T04:11:28.377Z,100680.56
2023-03-27T04:16:32.366Z,100684.66
2023-03-27T04:21:36.338Z,100689.31
2023-03-27T04:26:39.149Z,100685.41
2023-03-27T04:31:46.601Z,100690.94
2023-03-27T04:36:50.165Z,100706.84
2023-03-27T04:41:53.803Z,100707.06
2023-03-27T04:46:58.032Z,100706.88
2023-03-27T04:52:00.794Z,100713.00
2023-03-27T04:57:03.789Z,100713.63
2023-03-27T05:02:07.695Z,100724.34
2023-03-27T05:07:12.131Z,100732.56
2023-03-27T05:12:14.694Z,100734.00
2023-03-27T05:17:18.545Z,100740.06
2023-03-27T05:22:21.062Z,100746.44
2023-03-27T05:27:24.017Z,100757.97
2023-03-27T05:32:28.203Z,100767.38
2023-03-27T05:37:30.951Z,100771.13
2023-03-27T05:42:33.431Z,100775.06
2023-03-27T05:47:44.890Z,100788.09
2023-03-27T05:52:48.162Z,100785.16
2023-03-27T05:57:50.645Z,100790.59
2023-03-27T06:02:57.389Z,100797.00
2023-03-27T06:08:00.776Z,100805.59
2023-03-27T06:13:04.978Z,100810.06
2023-03-27T06:18:09.427Z,100823.22
2023-03-27T06:23:12.681Z,100828.88
2023-03-27T06:28:15.192Z,100838.66
2023-03-27T06:33:19.133Z,100847.44
2023-03-27T06:38:21.913Z,100846.84
2023-03-27T06:43:24.518Z,100854.94
2023-03-27T06:48:28.712Z,100858.09
2023-03-27T06:53:34.858Z,100852.44
2023-03-27T06:58:40.005Z,100855.09
2023-03-27T07:03:43.899Z,100868.22
2023-03-27T07:08:47.734Z,100877.84
2023-03-27T07:13:51.423Z,100882.00
2023-03-27T07:18:55.683Z,100891.63
2023-03-27T07:23:58.172Z,100898.66
2023-03-27T07:29:03.037Z,100915.19
2023-03-27T07:34:07.012Z,100929.31
2023-03-27T07:39:09.830Z,100918.28
2023-03-27T07:44:12.332Z,100918.69
2023-03-27T07:49:16.146Z,100925.44
2023-03-27T07:54:18.632Z,100928.28
2023-03-27T07:59:21.352Z,100926.97
2023-03-27T08:04:25.374Z,100929.31
2023-03-27T08:09:28.069Z,100941.53
2023-03-27T08:14:30.577Z,100933.88
2023-03-27T08:19:35.045Z,100944.88
2023-03-27T08:24:37.550Z,100939.13
2023-03-27T08:29:40.164Z,100943.66
2023-03-27T08:34:44.017Z,100955.75
2023-03-27T08:39:47.004Z,100955.19
2023-03-27T08:44:54.835Z,100962.63
2023-03-27T08:50:04.881Z,100968.59
2023-03-27T08:55:13.724Z,100968.03
2023-03-27T09:00:22.888Z,100962.94
2023-03-27T09:05:34.397Z,100954.78
2023-03-27T09:10:41.592Z,100965.38
2023-03-27T09:15:53.124Z,100970.19
2023-03-27T09:21:03.445Z,100964.06
2023-03-27T09:26:09.855Z,100974.72
2023-03-27T09:31:26.409Z,100993.28
2023-03-27T09:36:30.554Z,100978.78
2023-03-27T09:41:38.823Z,100986.03
2023-03-27T09:46:45.207Z,101000.28
2023-03-27T09:51:51.223Z,100992.66
2023-03-27T09:56:57.740Z,100986.06
2023-03-27T10:02:09.092Z,100988.13
2023-03-27T10:07:24.601Z,100984.09
2023-03-27T10:12:27.784Z,101001.56
2023-03-27T10:17:36.687Z,100990.94
2023-03-27T10:22:42.830Z,100995.69
2023-03-27T10:27:45.740Z,100997.75
2023-03-27T10:32:48.797Z,101009.72
2023-03-27T10:37:53.314Z,101006.78
2023-03-27T10:42:57.082Z,101001.59
2023-03-27T10:48:02.631Z,101001.34
2023-03-27T10:53:16.741Z,101013.69
2023-03-27T10:58:27.092Z,101009.72
2023-03-27T11:03:35.465Z,101014.09
2023-03-27T11:08:52.876Z,101014.00
2023-03-27T11:14:02.204Z,101015.28
2023-03-27T11:19:22.478Z,101015.63
2023-03-27T11:24:34.843Z,101010.19
2023-03-27T11:29:43.594Z,101008.44
2023-03-27T11:34:52.990Z,101014.03
2023-03-27T11:40:01.699Z,101021.97
2023-03-27T11:45:07.321Z,101021.22
2023-03-27T11:50:22.929Z,101024.84
2023-03-27T11:55:33.225Z,101025.97
2023-03-27T12:00:39.465Z,101030.72
2023-03-27T12:05:55.150Z,101018.69
2023-03-27T12:11:03.593Z,101024.88
2023-03-27T12:16:22.415Z,101023.16
2023-03-27T12:21:29.248Z,101021.56
2023-03-27T12:26:53.669Z,101018.47
2023-03-27T12:32:24.835Z,101018.84
2023-03-27T12:37:31.751Z,101020.25
2023-03-27T12:42:51.012Z,101026.53
2023-03-27T12:48:17.655Z,101022.94
2023-03-27T12:53:21.717Z,101010.34
2023-03-27T12:58:35.182Z,101009.38
2023-03-27T13:03:57.593Z,101009.13
2023-03-27T13:09:36.940Z,101010.38
2023-03-27T13:14:58.922Z,101017.00
2023-03-27T13:20:11.953Z,101022.38
2023-03-27T13:25:23.853Z,101012.19
2023-03-27T13:30:47.515Z,101020.03
2023-03-27T13:36:04.629Z,101014.00
2023-03-27T13:41:44.739Z,101020.53
2023-03-27T13:46:54.895Z,101023.69
2023-03-27T13:52:28.002Z,101018.25
2023-03-27T13:57:54.932Z,101015.66
2023-03-27T14:03:18.726Z,101012.72
2023-03-27T14:08:35.322Z,101016.00
2023-03-27T14:13:48.929Z,101022.38
2023-03-27T14:19:27.479Z,101019.75
2023-03-27T14:24:37.178Z,101023.63
2023-03-27T14:29:40.155Z,101017.13
2023-03-27T14:34:55.091Z,101018.19
2023-03-27T14:40:00.692Z,101027.56
2023-03-27T14:45:17.897Z,101028.28
2023-03-27T14:50:23.036Z,101078.91
2023-03-27T14:55:29.930Z,101089.44
2023-03-27T15:00:35.122Z,101098.81
2023-03-27T15:05:57.123Z,101092.66
2023-03-27T15:10:59.939Z,101050.13
2023-03-27T15:16:04.197Z,101041.16
2023-03-27T15:21:13.592Z,101050.13
2023-03-27T15:26:24.174Z,101057.00
2023-03-27T15:31:30.002Z,101061.69
2023-03-27T15:36:36.025Z,101069.56
2023-03-27T15:41:44.788Z,101078.00
2023-03-27T15:46:51.071Z,101080.34
2023-03-27T15:51:55.403Z,101088.13
2023-03-27T15:57:10.751Z,101092.19
2023-03-27T16:02:17.393Z,101106.69
2023-03-27T16:07:24.248Z,101107.75
2023-03-27T16:12:31.807Z,101087.97
2023-03-27T16:17:40.329Z,101094.97
2023-03-27T16:22:44.310Z,101092.53
2023-03-27T16:27:48.994Z,101093.03
2023-03-27T16:32:51.634Z,101092.13
2023-03-27T16:37:56.443Z,101076.97
2023-03-27T16:42:59.005Z,101070.03
2023-03-27T16:48:01.711Z,101054.28
2023-03-27T16:53:05.668Z,101057.38
2023-03-27T16:58:08.167Z,101048.56
2023-03-27T17:03:11.359Z,101057.03
2023-03-27T17:08:16.795Z,101053.97
2023-03-27T17:13:19.436Z,101039.03
2023-03-27T17:18:21.970Z,101049.31
2023-03-27T17:23:26.918Z,101036.63
2023-03-27T17:28:29.483Z,101035.69
2023-03-27T17:33:32.047Z,101044.72
2023-03-27T17:38:36.674Z,101040.50
2023-03-27T17:43:39.307Z,101046.34
2023-03-27T17:48:42.829Z,101059.78
2023-03-27T17:53:46.921Z,101053.53
2023-03-27T17:58:50.098Z,101046.16
2023-03-27T18:03:52.658Z,101056.31
2023-03-27T18:08:56.664Z,101092.50
2023-03-27T18:13:59.205Z,101106.81
2023-03-27T18:19:01.713Z,101105.94
2023-03-27T18:24:06.115Z,101101.47
2023-03-27T18:29:08.729Z,101091.09
2023-03-27T18:34:11.245Z,101100.13
2023-03-27T18:39:15.337Z,101097.75
2023-03-27T18:44:18.220Z,101100.84
2023-03-27T18:49:24.835Z,101096.31
2023-03-27T18:54:29.455Z,101101.66
2023-03-27T18:59:31.962Z,101089.69
2023-03-27T19:04:34.464Z,101094.28
2023-03-27T19:09:41.653Z,101094.69
2023-03-27T19:14:44.512Z,101109.53
2023-03-27T19:19:47.038Z,101110.22
2023-03-27T19:24:50.990Z,101097.44
2023-03-27T19:29:54.130Z,101105.63
2023-03-27T19:34:56.637Z,101108.75
2023-03-27T19:40:00.828Z,101107.84
2023-03-27T19:45:03.546Z,101097.03
2023-03-27T19:50:08.735Z,101098.69
2023-03-27T19:55:12.622Z,101098.94
2023-03-27T20:00:16.170Z,101104.34
2023-03-27T20:05:18.675Z,101109.63
2023-03-27T20:10:22.996Z,101101.44
2023-03-27T20:15:25.757Z,101094.72
2023-03-27T20:20:29.292Z,101094.94
2023-03-27T20:25:35.310Z,101137.28
2023-03-27T20:30:39.868Z,101173.34
2023-03-27T20:35:42.645Z,101170.69
2023-03-27T20:40:53.248Z,101187.75
2023-03-27T20:45:58.742Z,101184.31
2023-03-27T20:51:06.538Z,101201.38
2023-03-27T20:56:12.290Z,101186.16
2023-03-27T21:01:19.213Z,101196.81
2023-03-27T21:06:22.101Z,101171.69
2023-03-27T21:11:26.167Z,101160.06
2023-03-27T21:16:28.802Z,101174.88
2023-03-27T21:21:32.087Z,101179.94
2023-03-27T21:26:37.255Z,101173.22
2023-03-27T21:31:40.082Z,101178.25
2023-03-27T21:36:42.798Z,101187.59
2023-03-27T21:41:46.677Z,101189.09
2023-03-27T21:46:49.176Z,101201.00
2023-03-27T21:51:51.675Z,101200.56
2023-03-27T21:56:55.735Z,101217.00
2023-03-27T22:01:58.273Z,101213.66
2023-03-27T22:07:00.939Z,101224.31
2023-03-27T22:12:06.014Z,101224.91
2023-03-27T22:17:08.518Z,101240.75
2023-03-27T22:22:11.036Z,101239.41
2023-03-27T22:27:14.871Z,101239.69
2023-03-27T22:32:17.372Z,101247.31
2023-03-27T22:37:20.770Z,101254.31
2023-03-27T22:42:24.575Z,101265.00
2023-03-27T22:47:27.390Z,101274.88
2023-03-27T22:52:29.942Z,101280.38
2023-03-27T22:57:35.977Z,101313.44
2023-03-27T23:02:38.569Z,101314.38
2023-03-27T23:07:41.125Z,101325.22
2023-03-27T23:12:44.989Z,101325.81
2023-03-27T23:17:47.510Z,101326.41
2023-03-27T23:22:50.274Z,101333.13
2023-03-27T23:27:54.124Z,101346.06
2023-03-27T23:32:56.664Z,101349.56
2023-03-27T23:37:59.192Z,101350.47
2023-03-27T23:43:03.014Z,101355.78
2023-03-27T23:48:05.737Z,101369.84
2023-03-27T23:53:08.406Z,101359.19
2023-03-27T23:58:12.254Z,101378.66
